createdAt,value
2023-02-06T00:01:23.274Z,-3.50
2023-02-06T00:03:50.574Z,-3.50
2023-02-06T00:06:18.376Z,-3.50
2023-02-06T00:08:45.520Z,-3.50
2023-02-06T00:11:16.703Z,-3.50
2023-02-06T00:13:45.215Z,-3.60
2023-02-06T00:16:32.664Z,-3.60
2023-02-06T00:19:00.416Z,-3.60
2023-02-06T00:21:28.674Z,-3.60
2023-02-06T00:23:58.378Z,-3.60
2023-02-06T00:26:26.036Z,-3.60
2023-02-06T00:28:53.763Z,-3.60
2023-02-06T00:31:21.048Z,-3.70
2023-02-06T00:33:48.612Z,-3.70
2023-02-06T00:36:15.881Z,-3.70
2023-02-06T00:38:43.091Z,-3.70
2023-02-06T00:41:10.250Z,-3.70
2023-02-06T00:43:37.741Z,-3.80
2023-02-06T00:46:05.008Z,-3.80
2023-02-06T00:48:32.304Z,-3.80
2023-02-06T00:50:59.448Z,-3.80
2023-02-06T00:53:26.617Z,-3.70
2023-02-06T00:55:53.822Z,-3.70
2023-02-06T00:58:20.979Z,-3.80
2023-02-06T01:00:48.103Z,-3.80
2023-02-06T01:03:15.281Z,-3.80
2023-02-06T01:05:42.394Z,-3.80
2023-02-06T01:08:09.495Z,-3.80
2023-02-06T01:10:36.649Z,-3.80
2023-02-06T01:13:03.909Z,-3.80
2023-02-06T01:15:32.179Z,-3.80
2023-02-06T01:17:59.496Z,-3.80
2023-02-06T01:20:26.673Z,-3.80
2023-02-06T01:22:54.136Z,-3.80
2023-02-06T01:25:21.380Z,-3.80
2023-02-06T01:27:48.538Z,-3.90
2023-02-06T01:30:15.673Z,-3.90
2023-02-06T01:32:43.382Z,-3.90
2023-02-06T01:35:12.017Z,-3.90
2023-02-06T01:37:39.889Z,-3.90
2023-02-06T01:40:11.562Z,-3.90
2023-02-06T01:42:39.166Z,-3.90
2023-02-06T01:45:21.597Z,-3.90
2023-02-06T01:47:57.816Z,-3.90
2023-02-06T01:50:25.065Z,-4.00
2023-02-06T01:52:52.567Z,-4.00
2023-02-06T01:55:19.791Z,-4.00
2023-02-06T01:57:46.929Z,-4.00
2023-02-06T02:00:14.278Z,-4.00
2023-02-06T02:02:44.595Z,-4.10
2023-02-06T02:05:12.860Z,-4.00
2023-02-06T02:07:50.094Z,-4.10
2023-02-06T02:10:17.562Z,-4.10
2023-02-06T02:12:44.677Z,-4.10
2023-02-06T02:15:11.987Z,-4.10
2023-02-06T02:18:00.118Z,-4.10
2023-02-06T02:20:39.578Z,-4.20
2023-02-06T02:23:28.248Z,-4.20
2023-02-06T02:26:30.685Z,-4.20
2023-02-06T02:29:22.546Z,-4.20
2023-02-06T02:32:30.368Z,-4.20
2023-02-06T02:34:57.476Z,-4.30
2023-02-06T02:37:33.677Z,-4.30
2023-02-06T02:40:30.549Z,-4.30
2023-02-06T02:43:12.677Z,-4.30
2023-02-06T02:46:14.181Z,-4.30
2023-02-06T02:48:44.327Z,-4.30
2023-02-06T02:51:12.285Z,-4.30
2023-02-06T02:53:39.600Z,-4.30
2023-02-06T02:56:22.508Z,-4.30
2023-02-06T02:58:54.769Z,-4.30
2023-02-06T03:01:29.204Z,-4.30
2023-02-06T03:04:01.004Z,-4.30
2023-02-06T03:06:40.172Z,-4.30
2023-02-06T03:09:36.600Z,-4.30
2023-02-06T03:12:15.820Z,-4.30
2023-02-06T03:14:51.362Z,-4.30
2023-02-06T03:17:29.698Z,-4.20
2023-02-06T03:19:59.414Z,-4.20
2023-02-06T03:22:28.353Z,-4.20
2023-02-06T03:24:57.156Z,-4.20
2023-02-06T03:27:26.985Z,-4.10
2023-02-06T03:29:56.567Z,-4.10
2023-02-06T03:32:28.220Z,-4.10
2023-02-06T03:35:10.189Z,-4.10
2023-02-06T03:37:38.779Z,-4.10
2023-02-06T03:40:07.933Z,-4.10
2023-02-06T03:42:39.812Z,-4.00
2023-02-06T03:45:19.621Z,-4.00
2023-02-06T03:47:48.865Z,-4.00
2023-02-06T03:50:17.617Z,-4.00
2023-02-06T03:52:49.125Z,-4.00
2023-02-06T03:55:21.301Z,-3.90
2023-02-06T03:57:55.510Z,-3.90
2023-02-06T04:00:23.585Z,-3.90
2023-02-06T04:02:52.450Z,-4.00
2023-02-06T04:05:19.858Z,-4.00
2023-02-06T04:07:47.489Z,-4.00
2023-02-06T04:10:14.870Z,-3.90
2023-02-06T04:12:42.029Z,-3.90
2023-02-06T04:15:09.551Z,-3.90
2023-02-06T04:17:58.949Z,-3.90
2023-02-06T04:20:24.351Z,-3.90
2023-02-06T04:22:51.504Z,-3.90
2023-02-06T04:25:18.788Z,-3.90
2023-02-06T04:27:46.040Z,-3.90
2023-02-06T04:30:13.531Z,-3.80
2023-02-06T04:32:40.665Z,-3.90
2023-02-06T04:35:08.050Z,-3.80
2023-02-06T04:37:35.523Z,-3.80
2023-02-06T04:40:02.654Z,-3.80
2023-02-06T04:42:29.887Z,-3.80
2023-02-06T04:44:57.190Z,-3.80
2023-02-06T04:47:24.545Z,-3.80
2023-02-06T04:49:51.716Z,-3.80
2023-02-06T04:52:18.880Z,-3.80
2023-02-06T04:54:46.024Z,-3.80
2023-02-06T04:57:13.217Z,-3.80
2023-02-06T04:59:40.323Z,-3.80
2023-02-06T05:02:07.560Z,-3.70
2023-02-06T05:04:34.738Z,-3.70
2023-02-06T05:07:03.418Z,-3.70
2023-02-06T05:09:31.870Z,-3.60
2023-02-06T05:11:59.058Z,-3.60
2023-02-06T05:14:26.393Z,-3.60
2023-02-06T05:16:53.502Z,-3.60
2023-02-06T05:19:20.657Z,-3.60
2023-02-06T05:21:47.830Z,-3.60
2023-02-06T05:24:15.116Z,-3.60
2023-02-06T05:26:42.222Z,-3.50
2023-02-06T05:29:09.401Z,-3.60
2023-02-06T05:31:36.779Z,-3.50
2023-02-06T05:34:04.095Z,-3.50
2023-02-06T05:36:31.343Z,-3.50
2023-02-06T05:38:58.459Z,-3.50
2023-02-06T05:41:25.638Z,-3.50
2023-02-06T05:43:52.799Z,-3.50
2023-02-06T05:46:20.010Z,-3.40
2023-02-06T05:48:47.325Z,-3.40
2023-02-06T05:51:14.554Z,-3.40
2023-02-06T05:53:41.864Z,-3.40
2023-02-06T05:56:09.030Z,-3.50
2023-02-06T05:58:36.287Z,-3.50
2023-02-06T06:01:03.609Z,-3.50
2023-02-06T06:03:33.349Z,-3.60
2023-02-06T06:06:00.798Z,-3.60
2023-02-06T06:08:27.950Z,-3.60
2023-02-06T06:10:55.092Z,-3.60
2023-02-06T06:13:22.456Z,-3.60
2023-02-06T06:15:53.159Z,-3.70
2023-02-06T06:18:21.378Z,-3.70
2023-02-06T06:20:49.129Z,-3.70
2023-02-06T06:23:16.368Z,-3.70
2023-02-06T06:25:44.034Z,-3.70
2023-02-06T06:28:11.290Z,-3.80
2023-02-06T06:30:38.652Z,-3.80
2023-02-06T06:33:06.033Z,-3.90
2023-02-06T06:35:34.603Z,-3.90
2023-02-06T06:38:01.964Z,-3.90
2023-02-06T06:40:29.402Z,-3.90
2023-02-06T06:42:56.497Z,-3.90
2023-02-06T06:45:23.706Z,-4.00
2023-02-06T06:47:50.962Z,-4.00
2023-02-06T06:50:18.420Z,-4.00
2023-02-06T06:52:45.549Z,-4.00
2023-02-06T06:55:12.792Z,-3.90
2023-02-06T06:57:39.918Z,-3.90
2023-02-06T07:00:07.697Z,-3.90
2023-02-06T07:02:34.833Z,-3.90
2023-02-06T07:05:01.993Z,-3.90
2023-02-06T07:07:29.170Z,-3.90
2023-02-06T07:09:56.328Z,-3.90
2023-02-06T07:12:23.553Z,-3.90
2023-02-06T07:14:50.646Z,-3.90
2023-02-06T07:17:17.912Z,-3.80
2023-02-06T07:19:49.366Z,-3.80
2023-02-06T07:22:19.151Z,-3.70
2023-02-06T07:24:46.438Z,-3.60
2023-02-06T07:27:13.924Z,-3.60
2023-02-06T07:29:41.090Z,-3.50
2023-02-06T07:32:08.307Z,-3.30
2023-02-06T07:34:36.178Z,-3.20
2023-02-06T07:37:04.182Z,-3.10
2023-02-06T07:39:31.453Z,-2.90
2023-02-06T07:41:58.543Z,-2.70
2023-02-06T07:44:25.790Z,-2.50
2023-02-06T07:46:52.960Z,-2.30
2023-02-06T07:49:20.134Z,-2.30
2023-02-06T07:51:47.343Z,-2.10
2023-02-06T07:54:14.610Z,-2.10
2023-02-06T07:56:41.794Z,-1.90
2023-02-06T07:59:09.480Z,-1.90
2023-02-06T08:01:36.913Z,-1.80
2023-02-06T08:04:04.304Z,-1.80
2023-02-06T08:06:31.751Z,-1.70
2023-02-06T08:08:58.889Z,-1.60
2023-02-06T08:11:27.863Z,-1.50
2023-02-06T08:13:55.004Z,-1.40
2023-02-06T08:16:23.629Z,-1.30
2023-02-06T08:18:51.310Z,-1.20
2023-02-06T08:21:24.759Z,-1.10
2023-02-06T08:23:58.725Z,-1.00
2023-02-06T08:26:27.872Z,-0.90
2023-02-06T08:28:56.564Z,-0.90
2023-02-06T08:31:30.183Z,-0.90
2023-02-06T08:33:57.878Z,-1.00
2023-02-06T08:36:25.749Z,-0.90
2023-02-06T08:38:53.198Z,-0.90
2023-02-06T08:41:24.715Z,-0.90
2023-02-06T08:43:57.620Z,-0.70
2023-02-06T08:46:28.538Z,-0.60
2023-02-06T08:48:57.060Z,-0.50
2023-02-06T08:51:27.860Z,-0.40
2023-02-06T08:53:59.415Z,-0.30
2023-02-06T08:56:27.906Z,-0.20
2023-02-06T08:58:56.958Z,-0.10
2023-02-06T09:01:24.109Z,0.00
2023-02-06T09:03:55.478Z,0.10
2023-02-06T09:06:23.425Z,0.10
2023-02-06T09:08:50.663Z,0.10
2023-02-06T09:11:20.244Z,0.10
2023-02-06T09:13:49.442Z,0.20
2023-02-06T09:16:18.690Z,0.20
2023-02-06T09:18:45.990Z,0.20
2023-02-06T09:21:15.592Z,0.00
2023-02-06T09:23:48.793Z,-0.10
2023-02-06T09:26:19.623Z,-0.10
2023-02-06T09:28:46.865Z,-0.10
2023-02-06T09:31:14.584Z,-0.10
2023-02-06T09:33:41.915Z,0.00
2023-02-06T09:36:12.248Z,0.00
2023-02-06T09:38:46.469Z,0.10
2023-02-06T09:41:24.692Z,0.10
2023-02-06T09:43:56.638Z,0.20
2023-02-06T09:46:28.263Z,0.30
2023-02-06T09:48:57.394Z,0.40
2023-02-06T09:51:40.208Z,0.40
2023-02-06T09:54:22.184Z,0.50
2023-02-06T09:56:54.371Z,0.70
2023-02-06T09:59:35.529Z,0.80
2023-02-06T10:02:19.792Z,0.90
2023-02-06T10:05:02.067Z,1.10
2023-02-06T10:08:03.377Z,1.20
2023-02-06T10:10:54.168Z,1.30
2023-02-06T10:13:50.914Z,1.30
2023-02-06T10:16:40.354Z,1.30
2023-02-06T10:19:33.800Z,1.30
2023-02-06T10:22:11.122Z,1.20
2023-02-06T10:24:38.274Z,1.10
2023-02-06T10:27:12.272Z,1.10
2023-02-06T10:29:42.488Z,1.10
2023-02-06T10:32:22.004Z,1.20
2023-02-06T10:35:04.763Z,1.20
2023-02-06T10:37:55.618Z,1.10
2023-02-06T10:40:31.501Z,1.10
2023-02-06T10:43:13.816Z,1.10
2023-02-06T10:45:47.574Z,1.10
2023-02-06T10:48:46.302Z,1.20
2023-02-06T10:51:25.431Z,1.40
2023-02-06T10:53:56.294Z,1.40
2023-02-06T10:56:28.865Z,1.50
2023-02-06T10:59:03.796Z,1.60
2023-02-06T11:01:35.874Z,1.60
2023-02-06T11:04:11.245Z,1.80
2023-02-06T11:06:40.515Z,1.70
2023-02-06T11:09:08.783Z,1.80
2023-02-06T11:11:48.543Z,1.80
2023-02-06T11:14:30.500Z,1.80
2023-02-06T11:17:00.495Z,1.80
2023-02-06T11:19:33.162Z,1.90
2023-02-06T11:22:31.226Z,2.00
2023-02-06T11:25:17.656Z,2.00
2023-02-06T11:27:45.465Z,2.00
2023-02-06T11:30:41.532Z,2.00
2023-02-06T11:33:31.386Z,2.10
2023-02-06T11:35:59.989Z,2.30
2023-02-06T11:38:29.937Z,2.60
2023-02-06T11:41:16.547Z,2.60
2023-02-06T11:43:43.654Z,2.60
2023-02-06T11:46:19.839Z,2.70
2023-02-06T11:48:50.982Z,2.70
2023-02-06T11:51:18.205Z,2.70
2023-02-06T11:54:05.233Z,2.80
2023-02-06T11:56:32.471Z,2.80
2023-02-06T11:59:23.330Z,2.70
2023-02-06T12:01:50.890Z,2.80
2023-02-06T12:04:44.575Z,2.70
2023-02-06T12:07:21.721Z,2.60
2023-02-06T12:09:48.860Z,2.60
2023-02-06T12:12:29.621Z,2.70
2023-02-06T12:15:46.492Z,2.70
2023-02-06T12:18:12.679Z,2.60
2023-02-06T12:20:56.135Z,2.60
2023-02-06T12:23:33.739Z,2.60
2023-02-06T12:26:07.220Z,2.60
2023-02-06T12:28:45.732Z,2.50
2023-02-06T12:31:24.910Z,2.60
2023-02-06T12:34:04.311Z,2.60
2023-02-06T12:36:35.861Z,2.60
2023-02-06T12:39:15.901Z,2.60
2023-02-06T12:42:10.418Z,2.60
2023-02-06T12:44:43.861Z,2.50
2023-02-06T12:47:23.238Z,2.40
2023-02-06T12:50:09.554Z,2.40
2023-02-06T12:52:46.072Z,2.30
2023-02-06T12:55:28.422Z,2.30
2023-02-06T12:57:56.570Z,2.40
2023-02-06T13:00:41.967Z,2.40
2023-02-06T13:03:22.994Z,2.40
2023-02-06T13:06:12.478Z,2.50
2023-02-06T13:08:45.215Z,2.50
2023-02-06T13:11:21.269Z,2.50
2023-02-06T13:13:52.767Z,2.50
2023-02-06T13:16:20.114Z,2.50
2023-02-06T13:18:53.115Z,2.40
2023-02-06T13:21:28.782Z,2.30
2023-02-06T13:24:02.017Z,2.20
2023-02-06T13:26:53.396Z,2.20
2023-02-06T13:29:53.960Z,2.10
2023-02-06T13:32:24.858Z,2.10
2023-02-06T13:34:53.769Z,2.10
2023-02-06T13:37:33.057Z,2.10
2023-02-06T13:40:21.297Z,2.00
2023-02-06T13:42:57.041Z,2.00
2023-02-06T13:45:29.653Z,1.90
2023-02-06T13:48:36.589Z,1.80
2023-02-06T13:51:28.421Z,1.70
2023-02-06T13:54:23.246Z,1.70
2023-02-06T13:57:08.508Z,1.70
2023-02-06T13:59:41.816Z,1.70
2023-02-06T14:02:16.398Z,1.80
2023-02-06T14:04:46.430Z,1.80
2023-02-06T14:08:04.196Z,1.80
2023-02-06T14:11:22.607Z,1.80
2023-02-06T14:14:17.413Z,1.90
2023-02-06T14:16:59.879Z,1.90
2023-02-06T14:19:58.177Z,1.90
2023-02-06T14:22:46.833Z,1.90
2023-02-06T14:25:22.317Z,1.90
2023-02-06T14:27:58.575Z,1.90
2023-02-06T14:30:50.409Z,1.90
2023-02-06T14:33:39.174Z,1.90
2023-02-06T14:36:18.476Z,1.90
2023-02-06T14:39:29.844Z,1.80
2023-02-06T14:41:57.839Z,1.70
2023-02-06T14:44:30.395Z,1.50
2023-02-06T14:46:58.545Z,1.50
2023-02-06T14:49:34.838Z,1.40
2023-02-06T14:52:03.572Z,1.40
2023-02-06T14:54:38.765Z,1.40
2023-02-06T14:57:29.126Z,1.30
2023-02-06T14:59:59.426Z,1.30
2023-02-06T15:02:35.594Z,1.20
2023-02-06T15:05:04.670Z,1.30
2023-02-06T15:07:34.884Z,1.20
2023-02-06T15:10:13.395Z,1.10
2023-02-06T15:12:41.246Z,1.10
2023-02-06T15:15:19.018Z,1.00
2023-02-06T15:18:02.383Z,0.90
2023-02-06T15:20:42.068Z,0.90
2023-02-06T15:23:44.261Z,0.80
2023-02-06T15:26:20.710Z,0.80
2023-02-06T15:28:48.125Z,0.80
2023-02-06T15:31:20.514Z,0.70
2023-02-06T15:33:54.608Z,0.70
2023-02-06T15:36:37.372Z,0.60
2023-02-06T15:39:08.532Z,0.60
2023-02-06T15:41:36.135Z,0.50
2023-02-06T15:44:12.253Z,0.40
2023-02-06T15:46:40.016Z,0.40
2023-02-06T15:49:17.971Z,0.30
2023-02-06T15:51:54.013Z,0.30
2023-02-06T15:54:30.517Z,0.20
2023-02-06T15:57:33.571Z,0.20
2023-02-06T16:00:02.184Z,0.10
2023-02-06T16:02:34.487Z,0.10
2023-02-06T16:05:02.863Z,0.10
2023-02-06T16:07:35.994Z,0.00
2023-02-06T16:10:20.089Z,0.00
2023-02-06T16:12:47.709Z,0.00
2023-02-06T16:15:25.934Z,-0.10
2023-02-06T16:17:54.077Z,-0.10
2023-02-06T16:20:32.178Z,-0.10
2023-02-06T16:23:18.106Z,-0.10
2023-02-06T16:25:46.780Z,-0.10
2023-02-06T16:28:25.877Z,-0.20
2023-02-06T16:30:58.874Z,-0.20
2023-02-06T16:33:37.510Z,-0.30
2023-02-06T16:36:04.838Z,-0.30
2023-02-06T16:38:32.199Z,-0.30
2023-02-06T16:40:59.408Z,-0.30
2023-02-06T16:43:31.274Z,-0.40
2023-02-06T16:46:02.304Z,-0.40
2023-02-06T16:48:29.638Z,-0.40
2023-02-06T16:50:56.756Z,-0.50
2023-02-06T16:53:25.575Z,-0.50
2023-02-06T16:55:54.088Z,-0.50
2023-02-06T16:58:23.909Z,-0.50
2023-02-06T17:00:51.449Z,-0.50
2023-02-06T17:03:18.867Z,-0.50
2023-02-06T17:05:48.556Z,-0.60
2023-02-06T17:08:20.279Z,-0.60
2023-02-06T17:10:48.071Z,-0.60
2023-02-06T17:13:21.512Z,-0.60
2023-02-06T17:15:49.666Z,-0.70
2023-02-06T17:18:19.067Z,-0.70
2023-02-06T17:20:52.323Z,-0.70
2023-02-06T17:23:20.010Z,-0.80
2023-02-06T17:25:49.203Z,-0.80
2023-02-06T17:28:19.726Z,-0.80
2023-02-06T17:30:48.979Z,-0.80
2023-02-06T17:33:17.791Z,-0.80
2023-02-06T17:35:46.643Z,-0.80
2023-02-06T17:38:14.040Z,-0.80
2023-02-06T17:40:42.020Z,-0.80
2023-02-06T17:43:09.559Z,-0.90
2023-02-06T17:45:38.841Z,-0.90
2023-02-06T17:48:06.611Z,-0.90
2023-02-06T17:50:36.070Z,-0.90
2023-02-06T17:53:08.989Z,-1.00
2023-02-06T17:55:36.955Z,-1.00
2023-02-06T17:58:04.648Z,-1.00
2023-02-06T18:00:32.009Z,-1.00
2023-02-06T18:03:00.061Z,-1.10
2023-02-06T18:05:27.512Z,-1.20
2023-02-06T18:07:54.705Z,-1.20
2023-02-06T18:10:24.096Z,-1.20
2023-02-06T18:12:53.733Z,-1.30
2023-02-06T18:15:21.018Z,-1.30
2023-02-06T18:17:48.132Z,-1.30
2023-02-06T18:20:16.023Z,-1.30
2023-02-06T18:22:43.247Z,-1.40
2023-02-06T18:25:14.326Z,-1.40
2023-02-06T18:27:42.887Z,-1.40
2023-02-06T18:30:10.576Z,-1.50
2023-02-06T18:32:41.281Z,-1.40
2023-02-06T18:35:10.255Z,-1.50
2023-02-06T18:37:37.705Z,-1.50
2023-02-06T18:40:05.514Z,-1.50
2023-02-06T18:42:51.059Z,-1.50
2023-02-06T18:45:19.469Z,-1.50
2023-02-06T18:47:46.639Z,-1.60
2023-02-06T18:50:14.598Z,-1.60
2023-02-06T18:52:42.225Z,-1.60
2023-02-06T18:55:09.868Z,-1.70
2023-02-06T18:57:37.117Z,-1.70
2023-02-06T19:00:06.746Z,-1.70
2023-02-06T19:02:33.997Z,-1.70
2023-02-06T19:05:02.596Z,-1.70
2023-02-06T19:07:31.276Z,-1.70
2023-02-06T19:10:00.308Z,-1.70
2023-02-06T19:12:29.422Z,-1.70
2023-02-06T19:14:57.671Z,-1.70
2023-02-06T19:17:26.156Z,-1.80
2023-02-06T19:19:54.516Z,-1.80
2023-02-06T19:22:21.958Z,-1.80
2023-02-06T19:24:51.208Z,-1.80
2023-02-06T19:27:21.014Z,-1.80
2023-02-06T19:29:50.612Z,-1.80
2023-02-06T19:32:21.533Z,-1.80
2023-02-06T19:34:49.901Z,-1.90
2023-02-06T19:37:17.655Z,-1.90
2023-02-06T19:39:45.643Z,-1.90
2023-02-06T19:42:18.978Z,-1.90
2023-02-06T19:44:46.750Z,-1.90
2023-02-06T19:47:17.723Z,-1.90
2023-02-06T19:49:45.144Z,-1.90
2023-02-06T19:52:14.641Z,-1.90
2023-02-06T19:54:46.271Z,-1.90
2023-02-06T19:57:15.165Z,-2.00
2023-02-06T19:59:53.819Z,-2.00
2023-02-06T20:02:24.905Z,-2.00
2023-02-06T20:04:54.873Z,-2.00
2023-02-06T20:07:23.111Z,-2.00
2023-02-06T20:09:54.090Z,-2.10
2023-02-06T20:12:29.108Z,-2.10
2023-02-06T20:14:56.575Z,-2.20
2023-02-06T20:17:25.263Z,-2.20
2023-02-06T20:19:53.141Z,-2.20
2023-02-06T20:22:21.096Z,-2.20
2023-02-06T20:24:48.506Z,-2.20
2023-02-06T20:27:17.163Z,-2.20
2023-02-06T20:29:46.165Z,-2.20
2023-02-06T20:32:16.964Z,-2.20
2023-02-06T20:34:44.215Z,-2.20
2023-02-06T20:37:11.762Z,-2.20
2023-02-06T20:39:39.674Z,-2.30
2023-02-06T20:42:08.310Z,-2.30
2023-02-06T20:44:35.626Z,-2.30
2023-02-06T20:47:06.571Z,-2.30
2023-02-06T20:49:34.598Z,-2.30
2023-02-06T20:52:03.489Z,-2.30
2023-02-06T20:54:31.071Z,-2.40
2023-02-06T20:57:00.477Z,-2.40
2023-02-06T20:59:29.582Z,-2.40
2023-02-06T21:01:57.278Z,-2.40
2023-02-06T21:04:24.525Z,-2.40
2023-02-06T21:06:59.502Z,-2.40
2023-02-06T21:09:26.924Z,-2.40
2023-02-06T21:11:54.551Z,-2.50
2023-02-06T21:14:21.952Z,-2.50
2023-02-06T21:16:50.676Z,-2.50
2023-02-06T21:19:20.689Z,-2.50
2023-02-06T21:21:51.280Z,-2.50
2023-02-06T21:24:20.423Z,-2.50
2023-02-06T21:26:47.844Z,-2.50
2023-02-06T21:29:16.326Z,-2.50
2023-02-06T21:31:44.798Z,-2.50
2023-02-06T21:34:22.170Z,-2.50
2023-02-06T21:36:50.598Z,-2.50
2023-02-06T21:39:20.431Z,-2.50
2023-02-06T21:41:51.774Z,-2.60
2023-02-06T21:44:20.640Z,-2.60
2023-02-06T21:46:47.825Z,-2.60
2023-02-06T21:49:15.310Z,-2.60
2023-02-06T21:51:42.800Z,-2.60
2023-02-06T21:54:33.477Z,-2.60
2023-02-06T21:57:05.645Z,-2.70
2023-02-06T21:59:34.214Z,-2.70
2023-02-06T22:02:40.367Z,-2.70
2023-02-06T22:05:07.800Z,-2.70
2023-02-06T22:07:38.302Z,-2.70
2023-02-06T22:10:08.012Z,-2.70
2023-02-06T22:12:35.711Z,-2.70
2023-02-06T22:15:03.094Z,-2.70
2023-02-06T22:17:30.391Z,-2.70
2023-02-06T22:19:57.495Z,-2.70
2023-02-06T22:22:24.622Z,-2.80
2023-02-06T22:24:51.722Z,-2.80
2023-02-06T22:27:18.798Z,-2.80
2023-02-06T22:29:46.108Z,-2.80
2023-02-06T22:32:13.205Z,-2.80
2023-02-06T22:34:40.921Z,-2.80
2023-02-06T22:37:08.128Z,-2.90
2023-02-06T22:39:36.248Z,-2.80
2023-02-06T22:42:03.613Z,-2.90
2023-02-06T22:44:32.302Z,-2.90
2023-02-06T22:46:59.376Z,-2.90
2023-02-06T22:49:26.577Z,-2.90
2023-02-06T22:51:53.906Z,-2.90
2023-02-06T22:54:21.092Z,-2.90
2023-02-06T22:56:48.300Z,-2.90
2023-02-06T22:59:21.899Z,-2.90
2023-02-06T23:01:58.978Z,-3.00
2023-02-06T23:04:29.030Z,-2.90
2023-02-06T23:06:57.032Z,-3.00
2023-02-06T23:09:30.253Z,-3.00
2023-02-06T23:12:01.252Z,-3.00
2023-02-06T23:14:30.621Z,-3.00
2023-02-06T23:16:59.933Z,-3.00
2023-02-06T23:19:27.669Z,-3.00
2023-02-06T23:21:54.853Z,-3.00
2023-02-06T23:24:22.105Z,-3.10
2023-02-06T23:26:51.680Z,-3.10
2023-02-06T23:29:20.572Z,-3.10
2023-02-06T23:31:48.598Z,-3.20
2023-02-06T23:34:17.225Z,-3.20
2023-02-06T23:36:44.669Z,-3.30
2023-02-06T23:39:12.080Z,-3.30
2023-02-06T23:41:39.450Z,-3.40
2023-02-06T23:44:08.245Z,-3.40
2023-02-06T23:46:37.804Z,-3.50
2023-02-06T23:49:05.574Z,-3.50
2023-02-06T23:51:33.002Z,-3.50
2023-02-06T23:54:00.545Z,-3.60
2023-02-06T23:56:29.625Z,-3.60
2023-02-06T23:58:58.133Z,-3.60
